sensor_id;sensor_type;location;lat;lon;timestamp;P1;durP1;ratioP1;P2;durP2;ratioP2
60416;SDS011;46263;44.726;10.396;2022-10-16T00:01:46;3.50;;;3.20;;
60416;SDS011;46263;44.726;10.396;2022-10-16T00:04:12;3.80;;;3.50;;
60416;SDS011;46263;44.726;10.396;2022-10-16T00:06:38;3.40;;;3.10;;
60416;SDS011;46263;44.726;10.396;2022-10-16T00:09:04;4.20;;;3.80;;
60416;SDS011;46263;44.726;10.396;2022-10-16T00:11:33;3.88;;;3.58;;
60416;SDS011;46263;44.726;10.396;2022-10-16T00:14:02;3.75;;;3.45;;
60416;SDS011;46263;44.726;10.396;2022-10-16T00:16:31;3.83;;;3.53;;
60416;SDS011;46263;44.726;10.396;2022-10-16T00:18:57;3.75;;;3.42;;
60416;SDS011;46263;44.726;10.396;2022-10-16T00:21:23;3.40;;;3.10;;
60416;SDS011;46263;44.726;10.396;2022-10-16T00:23:53;3.35;;;3.05;;
60416;SDS011;46263;44.726;10.396;2022-10-16T00:26:20;3.95;;;3.65;;
60416;SDS011;46263;44.726;10.396;2022-10-16T00:28:46;4.00;;;3.25;;
60416;SDS011;46263;44.726;10.396;2022-10-16T00:31:13;3.45;;;3.15;;
60416;SDS011;46263;44.726;10.396;2022-10-16T00:33:39;3.65;;;3.35;;
60416;SDS011;46263;44.726;10.396;2022-10-16T00:36:05;3.53;;;3.22;;
60416;SDS011;46263;44.726;10.396;2022-10-16T00:38:32;3.90;;;3.60;;
60416;SDS011;46263;44.726;10.396;2022-10-16T00:40:58;3.53;;;3.22;;
60416;SDS011;46263;44.726;10.396;2022-10-16T00:46:02;3.80;;;3.33;;
60416;SDS011;46263;44.726;10.396;2022-10-16T00:48:29;3.75;;;3.45;;
60416;SDS011;46263;44.726;10.396;2022-10-16T00:50:56;4.03;;;3.72;;
60416;SDS011;46263;44.726;10.396;2022-10-16T00:53:23;3.50;;;3.20;;
60416;SDS011;46263;44.726;10.396;2022-10-16T00:55:50;3.55;;;3.28;;
60416;SDS011;46263;44.726;10.396;2022-10-16T00:58:16;4.07;;;3.78;;
60416;SDS011;46263;44.726;10.396;2022-10-16T01:00:41;3.75;;;3.45;;
60416;SDS011;46263;44.726;10.396;2022-10-16T01:05:55;3.72;;;3.42;;
60416;SDS011;46263;44.726;10.396;2022-10-16T01:11:33;4.75;;;3.55;;
60416;SDS011;46263;44.726;10.396;2022-10-16T01:16:58;3.90;;;3.60;;
60416;SDS011;46263;44.726;10.396;2022-10-16T01:22:05;3.55;;;3.25;;
60416;SDS011;46263;44.726;10.396;2022-10-16T01:24:47;3.50;;;3.20;;
60416;SDS011;46263;44.726;10.396;2022-10-16T01:27:15;4.00;;;3.70;;
60416;SDS011;46263;44.726;10.396;2022-10-16T01:29:59;4.15;;;3.60;;
60416;SDS011;46263;44.726;10.396;2022-10-16T01:35:31;3.45;;;3.25;;
60416;SDS011;46263;44.726;10.396;2022-10-16T01:38:03;3.42;;;3.15;;
60416;SDS011;46263;44.726;10.396;2022-10-16T01:40:34;3.63;;;3.33;;
60416;SDS011;46263;44.726;10.396;2022-10-16T01:43:20;3.55;;;3.30;;
60416;SDS011;46263;44.726;10.396;2022-10-16T01:45:50;3.78;;;3.47;;
60416;SDS011;46263;44.726;10.396;2022-10-16T01:48:18;3.83;;;3.50;;
60416;SDS011;46263;44.726;10.396;2022-10-16T01:50:50;3.55;;;3.25;;
60416;SDS011;46263;44.726;10.396;2022-10-16T01:53:19;3.72;;;3.42;;
60416;SDS011;46263;44.726;10.396;2022-10-16T01:55:46;3.90;;;3.60;;
60416;SDS011;46263;44.726;10.396;2022-10-16T01:58:14;4.13;;;3.45;;
60416;SDS011;46263;44.726;10.396;2022-10-16T02:00:40;3.88;;;3.42;;
60416;SDS011;46263;44.726;10.396;2022-10-16T02:03:09;3.88;;;3.55;;
60416;SDS011;46263;44.726;10.396;2022-10-16T02:05:41;4.05;;;3.20;;
60416;SDS011;46263;44.726;10.396;2022-10-16T02:08:11;3.80;;;3.50;;
60416;SDS011;46263;44.726;10.396;2022-10-16T02:10:37;3.35;;;3.10;;
60416;SDS011;46263;44.726;10.396;2022-10-16T02:13:05;3.80;;;3.50;;
60416;SDS011;46263;44.726;10.396;2022-10-16T02:15:34;4.00;;;3.70;;
60416;SDS011;46263;44.726;10.396;2022-10-16T02:18:01;3.45;;;3.20;;
60416;SDS011;46263;44.726;10.396;2022-10-16T02:20:28;3.65;;;3.38;;
60416;SDS011;46263;44.726;10.396;2022-10-16T02:22:59;4.03;;;3.70;;
60416;SDS011;46263;44.726;10.396;2022-10-16T02:25:34;3.42;;;3.22;;
60416;SDS011;46263;44.726;10.396;2022-10-16T02:28:04;3.40;;;3.20;;
60416;SDS011;46263;44.726;10.396;2022-10-16T02:30:50;3.47;;;3.17;;
60416;SDS011;46263;44.726;10.396;2022-10-16T02:33:21;3.83;;;3.53;;
60416;SDS011;46263;44.726;10.396;2022-10-16T02:35:47;3.53;;;3.22;;
60416;SDS011;46263;44.726;10.396;2022-10-16T02:38:16;3.50;;;3.20;;
60416;SDS011;46263;44.726;10.396;2022-10-16T02:40:43;3.60;;;3.28;;
60416;SDS011;46263;44.726;10.396;2022-10-16T02:43:09;3.45;;;3.15;;
60416;SDS011;46263;44.726;10.396;2022-10-16T02:45:36;3.28;;;3.08;;
60416;SDS011;46263;44.726;10.396;2022-10-16T02:48:01;3.42;;;3.13;;
60416;SDS011;46263;44.726;10.396;2022-10-16T02:50:27;3.78;;;3.45;;
60416;SDS011;46263;44.726;10.396;2022-10-16T02:52:52;3.97;;;3.67;;
60416;SDS011;46263;44.726;10.396;2022-10-16T02:55:18;3.47;;;2.97;;
60416;SDS011;46263;44.726;10.396;2022-10-16T02:57:43;3.72;;;3.42;;
60416;SDS011;46263;44.726;10.396;2022-10-16T03:00:10;3.80;;;3.50;;
60416;SDS011;46263;44.726;10.396;2022-10-16T03:02:38;3.33;;;3.03;;
60416;SDS011;46263;44.726;10.396;2022-10-16T03:05:03;4.88;;;3.70;;
60416;SDS011;46263;44.726;10.396;2022-10-16T03:07:29;3.30;;;3.10;;
60416;SDS011;46263;44.726;10.396;2022-10-16T03:09:55;4.15;;;3.75;;
60416;SDS011;46263;44.726;10.396;2022-10-16T03:12:20;3.15;;;2.95;;
60416;SDS011;46263;44.726;10.396;2022-10-16T03:14:46;5.10;;;3.28;;
60416;SDS011;46263;44.726;10.396;2022-10-16T03:17:12;3.38;;;3.08;;
60416;SDS011;46263;44.726;10.396;2022-10-16T03:19:38;3.35;;;3.15;;
60416;SDS011;46263;44.726;10.396;2022-10-16T03:22:04;3.83;;;3.53;;
60416;SDS011;46263;44.726;10.396;2022-10-16T03:24:29;3.70;;;3.40;;
60416;SDS011;46263;44.726;10.396;2022-10-16T03:26:54;3.60;;;3.30;;
60416;SDS011;46263;44.726;10.396;2022-10-16T03:29:20;3.40;;;3.20;;
60416;SDS011;46263;44.726;10.396;2022-10-16T03:31:45;3.33;;;3.03;;
60416;SDS011;46263;44.726;10.396;2022-10-16T03:34:13;3.55;;;3.25;;
60416;SDS011;46263;44.726;10.396;2022-10-16T03:36:39;3.30;;;3.00;;
60416;SDS011;46263;44.726;10.396;2022-10-16T03:39:04;3.65;;;3.35;;
60416;SDS011;46263;44.726;10.396;2022-10-16T03:41:29;3.85;;;3.55;;
60416;SDS011;46263;44.726;10.396;2022-10-16T03:43:55;3.58;;;3.28;;
60416;SDS011;46263;44.726;10.396;2022-10-16T03:46:20;3.60;;;3.30;;
60416;SDS011;46263;44.726;10.396;2022-10-16T03:48:46;4.70;;;3.78;;
60416;SDS011;46263;44.726;10.396;2022-10-16T03:51:11;3.50;;;3.20;;
60416;SDS011;46263;44.726;10.396;2022-10-16T03:53:36;3.42;;;3.13;;
60416;SDS011;46263;44.726;10.396;2022-10-16T03:56:02;3.70;;;3.40;;
60416;SDS011;46263;44.726;10.396;2022-10-16T03:58:27;3.65;;;3.35;;
60416;SDS011;46263;44.726;10.396;2022-10-16T04:00:53;3.58;;;3.28;;
60416;SDS011;46263;44.726;10.396;2022-10-16T04:03:19;3.83;;;3.53;;
60416;SDS011;46263;44.726;10.396;2022-10-16T04:05:46;3.65;;;3.35;;
60416;SDS011;46263;44.726;10.396;2022-10-16T04:08:11;3.67;;;3.38;;
60416;SDS011;46263;44.726;10.396;2022-10-16T04:10:37;3.35;;;3.03;;
60416;SDS011;46263;44.726;10.396;2022-10-16T04:13:02;3.65;;;3.35;;
60416;SDS011;46263;44.726;10.396;2022-10-16T04:15:28;3.80;;;3.40;;
60416;SDS011;46263;44.726;10.396;2022-10-16T04:17:53;3.90;;;3.53;;
60416;SDS011;46263;44.726;10.396;2022-10-16T04:20:19;3.50;;;3.20;;
60416;SDS011;46263;44.726;10.396;2022-10-16T04:22:44;3.47;;;3.20;;
60416;SDS011;46263;44.726;10.396;2022-10-16T04:25:10;3.67;;;3.38;;
60416;SDS011;46263;44.726;10.396;2022-10-16T04:27:37;3.67;;;3.38;;
60416;SDS011;46263;44.726;10.396;2022-10-16T04:30:03;3.90;;;3.60;;
60416;SDS011;46263;44.726;10.396;2022-10-16T04:32:29;4.00;;;3.70;;
60416;SDS011;46263;44.726;10.396;2022-10-16T04:34:54;3.70;;;3.40;;
60416;SDS011;46263;44.726;10.396;2022-10-16T04:37:23;4.22;;;3.67;;
60416;SDS011;46263;44.726;10.396;2022-10-16T04:39:52;3.85;;;3.45;;
60416;SDS011;46263;44.726;10.396;2022-10-16T04:42:18;3.42;;;3.20;;
60416;SDS011;46263;44.726;10.396;2022-10-16T04:44:44;3.33;;;3.03;;
60416;SDS011;46263;44.726;10.396;2022-10-16T04:47:10;3.38;;;3.13;;
60416;SDS011;46263;44.726;10.396;2022-10-16T04:49:35;3.72;;;3.42;;
60416;SDS011;46263;44.726;10.396;2022-10-16T04:52:01;4.28;;;3.47;;
60416;SDS011;46263;44.726;10.396;2022-10-16T04:54:26;4.30;;;3.58;;
60416;SDS011;46263;44.726;10.396;2022-10-16T04:56:52;3.85;;;3.55;;
60416;SDS011;46263;44.726;10.396;2022-10-16T04:59:18;3.33;;;3.03;;
60416;SDS011;46263;44.726;10.396;2022-10-16T05:01:44;4.28;;;3.45;;
60416;SDS011;46263;44.726;10.396;2022-10-16T05:04:10;3.58;;;3.28;;
60416;SDS011;46263;44.726;10.396;2022-10-16T05:06:36;4.10;;;3.60;;
60416;SDS011;46263;44.726;10.396;2022-10-16T05:09:03;3.70;;;3.40;;
60416;SDS011;46263;44.726;10.396;2022-10-16T05:11:32;3.47;;;3.28;;
60416;SDS011;46263;44.726;10.396;2022-10-16T05:13:57;3.40;;;3.10;;
60416;SDS011;46263;44.726;10.396;2022-10-16T05:16:23;3.72;;;3.42;;
60416;SDS011;46263;44.726;10.396;2022-10-16T05:18:48;3.72;;;3.42;;
60416;SDS011;46263;44.726;10.396;2022-10-16T05:21:14;3.33;;;3.13;;
60416;SDS011;46263;44.726;10.396;2022-10-16T05:23:39;3.85;;;3.42;;
60416;SDS011;46263;44.726;10.396;2022-10-16T05:26:05;3.50;;;3.17;;
60416;SDS011;46263;44.726;10.396;2022-10-16T05:28:30;3.47;;;3.17;;
60416;SDS011;46263;44.726;10.396;2022-10-16T05:30:56;3.58;;;3.28;;
60416;SDS011;46263;44.726;10.396;2022-10-16T05:33:23;3.55;;;3.25;;
60416;SDS011;46263;44.726;10.396;2022-10-16T05:35:50;4.40;;;3.38;;
60416;SDS011;46263;44.726;10.396;2022-10-16T05:38:16;3.65;;;3.35;;
60416;SDS011;46263;44.726;10.396;2022-10-16T05:40:42;3.55;;;3.22;;
60416;SDS011;46263;44.726;10.396;2022-10-16T05:43:08;3.83;;;3.47;;
60416;SDS011;46263;44.726;10.396;2022-10-16T05:45:33;3.35;;;3.15;;
60416;SDS011;46263;44.726;10.396;2022-10-16T05:47:59;3.40;;;3.10;;
60416;SDS011;46263;44.726;10.396;2022-10-16T05:50:25;3.42;;;3.13;;
60416;SDS011;46263;44.726;10.396;2022-10-16T05:52:51;3.50;;;3.20;;
60416;SDS011;46263;44.726;10.396;2022-10-16T05:55:17;3.47;;;3.17;;
60416;SDS011;46263;44.726;10.396;2022-10-16T05:57:42;3.65;;;3.35;;
60416;SDS011;46263;44.726;10.396;2022-10-16T06:00:08;3.80;;;3.50;;
60416;SDS011;46263;44.726;10.396;2022-10-16T06:02:34;3.80;;;3.45;;
60416;SDS011;46263;44.726;10.396;2022-10-16T06:05:00;4.00;;;3.60;;
60416;SDS011;46263;44.726;10.396;2022-10-16T06:07:25;3.42;;;3.22;;
60416;SDS011;46263;44.726;10.396;2022-10-16T06:09:51;4.13;;;3.30;;
60416;SDS011;46263;44.726;10.396;2022-10-16T06:12:17;3.60;;;3.30;;
60416;SDS011;46263;44.726;10.396;2022-10-16T06:14:43;3.80;;;3.40;;
60416;SDS011;46263;44.726;10.396;2022-10-16T06:17:09;3.53;;;3.20;;
60416;SDS011;46263;44.726;10.396;2022-10-16T06:19:35;3.45;;;3.15;;
60416;SDS011;46263;44.726;10.396;2022-10-16T06:22:00;4.00;;;3.60;;
60416;SDS011;46263;44.726;10.396;2022-10-16T06:24:27;4.05;;;3.72;;
60416;SDS011;46263;44.726;10.396;2022-10-16T06:26:53;3.33;;;2.97;;
60416;SDS011;46263;44.726;10.396;2022-10-16T06:29:18;3.50;;;3.20;;
60416;SDS011;46263;44.726;10.396;2022-10-16T06:31:43;3.45;;;3.15;;
60416;SDS011;46263;44.726;10.396;2022-10-16T06:34:09;3.60;;;3.30;;
60416;SDS011;46263;44.726;10.396;2022-10-16T06:36:36;3.08;;;2.78;;
60416;SDS011;46263;44.726;10.396;2022-10-16T06:39:03;3.45;;;3.22;;
60416;SDS011;46263;44.726;10.396;2022-10-16T06:41:30;3.72;;;3.42;;
60416;SDS011;46263;44.726;10.396;2022-10-16T06:43:56;3.42;;;3.13;;
60416;SDS011;46263;44.726;10.396;2022-10-16T06:46:22;3.60;;;3.30;;
60416;SDS011;46263;44.726;10.396;2022-10-16T06:48:49;3.20;;;3.00;;
60416;SDS011;46263;44.726;10.396;2022-10-16T06:51:15;3.58;;;3.28;;
60416;SDS011;46263;44.726;10.396;2022-10-16T06:53:43;3.90;;;3.60;;
60416;SDS011;46263;44.726;10.396;2022-10-16T06:56:14;3.90;;;3.50;;
60416;SDS011;46263;44.726;10.396;2022-10-16T06:58:41;3.40;;;3.10;;
60416;SDS011;46263;44.726;10.396;2022-10-16T07:01:07;3.50;;;3.20;;
60416;SDS011;46263;44.726;10.396;2022-10-16T07:03:33;3.70;;;3.40;;
60416;SDS011;46263;44.726;10.396;2022-10-16T07:06:02;3.58;;;3.25;;
60416;SDS011;46263;44.726;10.396;2022-10-16T07:08:32;3.70;;;3.25;;
60416;SDS011;46263;44.726;10.396;2022-10-16T07:11:00;3.63;;;2.90;;
60416;SDS011;46263;44.726;10.396;2022-10-16T07:13:26;3.28;;;3.08;;
60416;SDS011;46263;44.726;10.396;2022-10-16T07:15:51;3.60;;;3.30;;
60416;SDS011;46263;44.726;10.396;2022-10-16T07:18:16;3.17;;;2.90;;
60416;SDS011;46263;44.726;10.396;2022-10-16T07:20:42;3.28;;;2.97;;
60416;SDS011;46263;44.726;10.396;2022-10-16T07:23:07;3.50;;;3.20;;
60416;SDS011;46263;44.726;10.396;2022-10-16T07:25:33;3.70;;;3.40;;
60416;SDS011;46263;44.726;10.396;2022-10-16T07:27:58;3.30;;;3.00;;
60416;SDS011;46263;44.726;10.396;2022-10-16T07:30:23;3.35;;;3.08;;
60416;SDS011;46263;44.726;10.396;2022-10-16T07:32:49;3.60;;;3.30;;
60416;SDS011;46263;44.726;10.396;2022-10-16T07:35:14;3.05;;;2.58;;
60416;SDS011;46263;44.726;10.396;2022-10-16T07:37:43;3.72;;;3.42;;
60416;SDS011;46263;44.726;10.396;2022-10-16T07:40:10;3.10;;;2.90;;
60416;SDS011;46263;44.726;10.396;2022-10-16T07:42:36;3.45;;;3.15;;
60416;SDS011;46263;44.726;10.396;2022-10-16T07:45:01;3.28;;;2.97;;
60416;SDS011;46263;44.726;10.396;2022-10-16T07:47:27;3.35;;;3.05;;
60416;SDS011;46263;44.726;10.396;2022-10-16T07:49:53;2.70;;;2.50;;
60416;SDS011;46263;44.726;10.396;2022-10-16T07:52:18;3.33;;;2.80;;
60416;SDS011;46263;44.726;10.396;2022-10-16T07:54:44;3.70;;;3.40;;
60416;SDS011;46263;44.726;10.396;2022-10-16T07:57:09;3.17;;;2.97;;
60416;SDS011;46263;44.726;10.396;2022-10-16T07:59:34;3.53;;;3.20;;
60416;SDS011;46263;44.726;10.396;2022-10-16T08:02:00;4.05;;;3.13;;
60416;SDS011;46263;44.726;10.396;2022-10-16T08:04:25;3.47;;;3.28;;
60416;SDS011;46263;44.726;10.396;2022-10-16T08:06:51;3.38;;;3.08;;
60416;SDS011;46263;44.726;10.396;2022-10-16T08:09:16;3.13;;;2.92;;
60416;SDS011;46263;44.726;10.396;2022-10-16T08:11:42;3.25;;;3.05;;
60416;SDS011;46263;44.726;10.396;2022-10-16T08:14:07;3.42;;;3.13;;
60416;SDS011;46263;44.726;10.396;2022-10-16T08:16:32;3.20;;;2.90;;
60416;SDS011;46263;44.726;10.396;2022-10-16T08:18:58;3.58;;;3.30;;
60416;SDS011;46263;44.726;10.396;2022-10-16T08:21:23;3.08;;;2.78;;
60416;SDS011;46263;44.726;10.396;2022-10-16T08:23:49;3.05;;;2.85;;
60416;SDS011;46263;44.726;10.396;2022-10-16T08:26:15;3.10;;;2.90;;
60416;SDS011;46263;44.726;10.396;2022-10-16T08:28:41;3.20;;;2.90;;
60416;SDS011;46263;44.726;10.396;2022-10-16T08:31:07;2.83;;;2.63;;
60416;SDS011;46263;44.726;10.396;2022-10-16T08:33:41;3.10;;;2.90;;
60416;SDS011;46263;44.726;10.396;2022-10-16T08:36:09;3.00;;;2.80;;
60416;SDS011;46263;44.726;10.396;2022-10-16T08:38:35;3.33;;;3.03;;
60416;SDS011;46263;44.726;10.396;2022-10-16T08:46:44;2.90;;;2.70;;
60416;SDS011;46263;44.726;10.396;2022-10-16T08:49:29;3.17;;;2.88;;
60416;SDS011;46263;44.726;10.396;2022-10-16T08:51:56;8.18;;;3.22;;
60416;SDS011;46263;44.726;10.396;2022-10-16T08:59:45;64.03;;;57.53;;
60416;SDS011;46263;44.726;10.396;2022-10-16T09:10:38;62.28;;;55.72;;
60416;SDS011;46263;44.726;10.396;2022-10-16T09:16:25;45.28;;;40.47;;
60416;SDS011;46263;44.726;10.396;2022-10-16T09:21:41;33.40;;;30.40;;
60416;SDS011;46263;44.726;10.396;2022-10-16T09:24:16;29.10;;;26.23;;
60416;SDS011;46263;44.726;10.396;2022-10-16T09:26:43;25.45;;;22.83;;
60416;SDS011;46263;44.726;10.396;2022-10-16T09:29:13;20.77;;;18.63;;
60416;SDS011;46263;44.726;10.396;2022-10-16T09:31:40;19.17;;;17.23;;
60416;SDS011;46263;44.726;10.396;2022-10-16T09:34:08;17.05;;;15.27;;
60416;SDS011;46263;44.726;10.396;2022-10-16T09:36:56;15.40;;;13.95;;
60416;SDS011;46263;44.726;10.396;2022-10-16T09:39:23;14.50;;;13.10;;
60416;SDS011;46263;44.726;10.396;2022-10-16T09:41:49;13.45;;;12.10;;
60416;SDS011;46263;44.726;10.396;2022-10-16T09:44:17;11.77;;;10.50;;
60416;SDS011;46263;44.726;10.396;2022-10-16T09:46:48;13.95;;;9.95;;
60416;SDS011;46263;44.726;10.396;2022-10-16T09:49:24;10.02;;;9.13;;
60416;SDS011;46263;44.726;10.396;2022-10-16T09:51:51;9.90;;;8.95;;
60416;SDS011;46263;44.726;10.396;2022-10-16T09:54:27;8.65;;;7.80;;
60416;SDS011;46263;44.726;10.396;2022-10-16T09:57:03;8.07;;;7.28;;
60416;SDS011;46263;44.726;10.396;2022-10-16T09:59:30;7.65;;;6.85;;
60416;SDS011;46263;44.726;10.396;2022-10-16T10:01:56;11.00;;;5.97;;
60416;SDS011;46263;44.726;10.396;2022-10-16T10:04:36;6.57;;;5.95;;
60416;SDS011;46263;44.726;10.396;2022-10-16T10:07:07;7.28;;;5.85;;
60416;SDS011;46263;44.726;10.396;2022-10-16T10:09:44;6.65;;;5.47;;
60416;SDS011;46263;44.726;10.396;2022-10-16T10:12:27;6.97;;;5.20;;
60416;SDS011;46263;44.726;10.396;2022-10-16T10:14:56;5.03;;;4.53;;
60416;SDS011;46263;44.726;10.396;2022-10-16T10:17:26;6.10;;;4.63;;
60416;SDS011;46263;44.726;10.396;2022-10-16T10:19:57;6.85;;;5.05;;
60416;SDS011;46263;44.726;10.396;2022-10-16T10:22:43;5.88;;;4.97;;
60416;SDS011;46263;44.726;10.396;2022-10-16T10:30:38;4.07;;;3.60;;
60416;SDS011;46263;44.726;10.396;2022-10-16T10:36:13;4.65;;;3.97;;
60416;SDS011;46263;44.726;10.396;2022-10-16T10:39:19;4.55;;;4.15;;
60416;SDS011;46263;44.726;10.396;2022-10-16T10:47:46;3.90;;;3.50;;
60416;SDS011;46263;44.726;10.396;2022-10-16T11:01:09;4.25;;;3.85;;
60416;SDS011;46263;44.726;10.396;2022-10-16T11:06:36;4.57;;;3.72;;
60416;SDS011;46263;44.726;10.396;2022-10-16T11:11:49;5.60;;;3.55;;
60416;SDS011;46263;44.726;10.396;2022-10-16T11:14:27;5.18;;;3.70;;
60416;SDS011;46263;44.726;10.396;2022-10-16T11:17:01;4.10;;;3.50;;
60416;SDS011;46263;44.726;10.396;2022-10-16T11:25:18;4.43;;;3.03;;
60416;SDS011;46263;44.726;10.396;2022-10-16T11:33:49;3.95;;;3.25;;
60416;SDS011;46263;44.726;10.396;2022-10-16T11:36:23;4.03;;;3.10;;
60416;SDS011;46263;44.726;10.396;2022-10-16T11:38:58;3.27;;;2.97;;
60416;SDS011;46263;44.726;10.396;2022-10-16T11:44:27;4.18;;;2.90;;
60416;SDS011;46263;44.726;10.396;2022-10-16T11:47:07;3.67;;;3.25;;
60416;SDS011;46263;44.726;10.396;2022-10-16T11:49:57;3.60;;;3.30;;
60416;SDS011;46263;44.726;10.396;2022-10-16T11:55:31;3.53;;;3.22;;
60416;SDS011;46263;44.726;10.396;2022-10-16T11:58:05;3.53;;;3.10;;
60416;SDS011;46263;44.726;10.396;2022-10-16T12:08:38;3.70;;;2.95;;
60416;SDS011;46263;44.726;10.396;2022-10-16T12:11:09;3.10;;;2.80;;
60416;SDS011;46263;44.726;10.396;2022-10-16T12:13:45;4.85;;;2.97;;
60416;SDS011;46263;44.726;10.396;2022-10-16T12:18:39;3.22;;;2.90;;
60416;SDS011;46263;44.726;10.396;2022-10-16T12:21:06;3.65;;;3.08;;
60416;SDS011;46263;44.726;10.396;2022-10-16T12:23:36;3.00;;;2.80;;
60416;SDS011;46263;44.726;10.396;2022-10-16T12:26:04;3.60;;;2.83;;
60416;SDS011;46263;44.726;10.396;2022-10-16T12:28:33;3.75;;;3.35;;
60416;SDS011;46263;44.726;10.396;2022-10-16T12:31:01;3.38;;;2.78;;
60416;SDS011;46263;44.726;10.396;2022-10-16T12:33:34;4.38;;;3.30;;
60416;SDS011;46263;44.726;10.396;2022-10-16T12:36:00;3.45;;;2.92;;
60416;SDS011;46263;44.726;10.396;2022-10-16T12:38:35;3.47;;;3.00;;
60416;SDS011;46263;44.726;10.396;2022-10-16T12:41:10;2.90;;;2.70;;
60416;SDS011;46263;44.726;10.396;2022-10-16T12:48:32;3.42;;;3.10;;
60416;SDS011;46263;44.726;10.396;2022-10-16T12:51:09;3.47;;;3.17;;
60416;SDS011;46263;44.726;10.396;2022-10-16T12:53:46;3.67;;;3.03;;
60416;SDS011;46263;44.726;10.396;2022-10-16T12:59:38;3.30;;;3.00;;
60416;SDS011;46263;44.726;10.396;2022-10-16T13:02:49;3.35;;;3.05;;
60416;SDS011;46263;44.726;10.396;2022-10-16T13:17:06;3.40;;;2.75;;
60416;SDS011;46263;44.726;10.396;2022-10-16T13:22:47;3.58;;;3.20;;
60416;SDS011;46263;44.726;10.396;2022-10-16T13:28:05;2.95;;;2.75;;
60416;SDS011;46263;44.726;10.396;2022-10-16T13:35:53;3.92;;;3.58;;
60416;SDS011;46263;44.726;10.396;2022-10-16T13:38:25;3.97;;;3.58;;
60416;SDS011;46263;44.726;10.396;2022-10-16T13:43:22;3.85;;;3.13;;
60416;SDS011;46263;44.726;10.396;2022-10-16T13:48:21;5.95;;;4.93;;
60416;SDS011;46263;44.726;10.396;2022-10-16T13:50:46;4.85;;;4.32;;
60416;SDS011;46263;44.726;10.396;2022-10-16T13:53:23;7.57;;;4.07;;
60416;SDS011;46263;44.726;10.396;2022-10-16T13:55:49;5.25;;;3.90;;
60416;SDS011;46263;44.726;10.396;2022-10-16T13:58:14;4.18;;;3.72;;
60416;SDS011;46263;44.726;10.396;2022-10-16T14:00:40;4.05;;;3.65;;
60416;SDS011;46263;44.726;10.396;2022-10-16T14:03:18;3.83;;;3.45;;
60416;SDS011;46263;44.726;10.396;2022-10-16T14:05:49;4.68;;;3.40;;
60416;SDS011;46263;44.726;10.396;2022-10-16T14:08:17;4.00;;;3.60;;
60416;SDS011;46263;44.726;10.396;2022-10-16T14:10:42;4.55;;;3.53;;
60416;SDS011;46263;44.726;10.396;2022-10-16T14:13:13;4.68;;;3.45;;
60416;SDS011;46263;44.726;10.396;2022-10-16T14:15:45;3.78;;;3.40;;
60416;SDS011;46263;44.726;10.396;2022-10-16T14:18:18;3.78;;;3.47;;
60416;SDS011;46263;44.726;10.396;2022-10-16T14:20:46;4.30;;;3.38;;
60416;SDS011;46263;44.726;10.396;2022-10-16T14:25:53;5.60;;;3.30;;
60416;SDS011;46263;44.726;10.396;2022-10-16T14:28:20;4.80;;;3.30;;
60416;SDS011;46263;44.726;10.396;2022-10-16T14:30:53;4.45;;;3.47;;
60416;SDS011;46263;44.726;10.396;2022-10-16T14:35:59;3.80;;;3.47;;
60416;SDS011;46263;44.726;10.396;2022-10-16T14:38:37;3.35;;;3.05;;
60416;SDS011;46263;44.726;10.396;2022-10-16T14:41:04;3.85;;;3.33;;
60416;SDS011;46263;44.726;10.396;2022-10-16T14:46:06;3.45;;;3.25;;
60416;SDS011;46263;44.726;10.396;2022-10-16T14:48:42;3.85;;;3.55;;
60416;SDS011;46263;44.726;10.396;2022-10-16T14:51:14;3.83;;;3.40;;
60416;SDS011;46263;44.726;10.396;2022-10-16T14:53:41;4.80;;;3.25;;
60416;SDS011;46263;44.726;10.396;2022-10-16T14:56:17;4.20;;;3.63;;
60416;SDS011;46263;44.726;10.396;2022-10-16T14:58:45;4.22;;;3.00;;
60416;SDS011;46263;44.726;10.396;2022-10-16T15:01:10;3.15;;;2.88;;
60416;SDS011;46263;44.726;10.396;2022-10-16T15:03:36;3.40;;;3.10;;
60416;SDS011;46263;44.726;10.396;2022-10-16T15:06:03;4.18;;;3.28;;
60416;SDS011;46263;44.726;10.396;2022-10-16T15:08:28;4.35;;;3.10;;
60416;SDS011;46263;44.726;10.396;2022-10-16T15:10:54;3.85;;;3.35;;
60416;SDS011;46263;44.726;10.396;2022-10-16T15:13:19;4.53;;;3.25;;
60416;SDS011;46263;44.726;10.396;2022-10-16T15:15:48;3.80;;;3.50;;
60416;SDS011;46263;44.726;10.396;2022-10-16T15:18:14;4.30;;;3.60;;
60416;SDS011;46263;44.726;10.396;2022-10-16T15:20:44;3.53;;;3.20;;
60416;SDS011;46263;44.726;10.396;2022-10-16T15:23:17;3.33;;;2.95;;
60416;SDS011;46263;44.726;10.396;2022-10-16T15:25:45;5.82;;;3.40;;
60416;SDS011;46263;44.726;10.396;2022-10-16T15:28:12;3.65;;;3.15;;
60416;SDS011;46263;44.726;10.396;2022-10-16T15:30:39;3.05;;;2.75;;
60416;SDS011;46263;44.726;10.396;2022-10-16T15:33:05;3.22;;;2.92;;
60416;SDS011;46263;44.726;10.396;2022-10-16T15:35:39;3.15;;;2.95;;
60416;SDS011;46263;44.726;10.396;2022-10-16T15:38:05;3.35;;;3.05;;
60416;SDS011;46263;44.726;10.396;2022-10-16T15:40:30;3.80;;;3.50;;
60416;SDS011;46263;44.726;10.396;2022-10-16T15:42:56;3.40;;;3.10;;
60416;SDS011;46263;44.726;10.396;2022-10-16T15:45:21;3.47;;;3.17;;
60416;SDS011;46263;44.726;10.396;2022-10-16T15:47:47;3.25;;;3.05;;
60416;SDS011;46263;44.726;10.396;2022-10-16T15:50:13;3.17;;;2.97;;
60416;SDS011;46263;44.726;10.396;2022-10-16T15:52:41;3.42;;;3.13;;
60416;SDS011;46263;44.726;10.396;2022-10-16T15:55:07;3.72;;;3.00;;
60416;SDS011;46263;44.726;10.396;2022-10-16T15:57:35;3.25;;;3.05;;
60416;SDS011;46263;44.726;10.396;2022-10-16T16:00:04;3.30;;;3.00;;
60416;SDS011;46263;44.726;10.396;2022-10-16T16:02:30;3.05;;;2.70;;
60416;SDS011;46263;44.726;10.396;2022-10-16T16:04:56;3.38;;;3.10;;
60416;SDS011;46263;44.726;10.396;2022-10-16T16:07:22;2.95;;;2.75;;
60416;SDS011;46263;44.726;10.396;2022-10-16T16:09:47;3.20;;;3.00;;
60416;SDS011;46263;44.726;10.396;2022-10-16T16:12:12;3.40;;;3.10;;
60416;SDS011;46263;44.726;10.396;2022-10-16T16:14:38;3.63;;;2.83;;
60416;SDS011;46263;44.726;10.396;2022-10-16T16:17:03;3.10;;;2.90;;
60416;SDS011;46263;44.726;10.396;2022-10-16T16:19:29;3.47;;;3.17;;
60416;SDS011;46263;44.726;10.396;2022-10-16T16:21:54;3.63;;;3.33;;
60416;SDS011;46263;44.726;10.396;2022-10-16T16:24:20;3.15;;;2.92;;
60416;SDS011;46263;44.726;10.396;2022-10-16T16:26:45;3.08;;;2.88;;
60416;SDS011;46263;44.726;10.396;2022-10-16T16:29:11;3.33;;;3.05;;
60416;SDS011;46263;44.726;10.396;2022-10-16T16:31:38;3.17;;;2.95;;
60416;SDS011;46263;44.726;10.396;2022-10-16T16:34:04;3.40;;;3.10;;
60416;SDS011;46263;44.726;10.396;2022-10-16T16:36:30;3.17;;;2.88;;
60416;SDS011;46263;44.726;10.396;2022-10-16T16:38:56;3.08;;;2.88;;
60416;SDS011;46263;44.726;10.396;2022-10-16T16:41:23;3.10;;;2.90;;
60416;SDS011;46263;44.726;10.396;2022-10-16T16:43:50;3.13;;;2.92;;
60416;SDS011;46263;44.726;10.396;2022-10-16T16:46:16;3.25;;;2.95;;
60416;SDS011;46263;44.726;10.396;2022-10-16T16:48:42;2.85;;;2.63;;
60416;SDS011;46263;44.726;10.396;2022-10-16T16:51:11;4.15;;;2.72;;
60416;SDS011;46263;44.726;10.396;2022-10-16T16:53:41;2.97;;;2.78;;
60416;SDS011;46263;44.726;10.396;2022-10-16T16:56:08;3.47;;;2.85;;
60416;SDS011;46263;44.726;10.396;2022-10-16T16:58:34;3.90;;;3.17;;
60416;SDS011;46263;44.726;10.396;2022-10-16T17:01:00;4.05;;;3.10;;
60416;SDS011;46263;44.726;10.396;2022-10-16T17:03:30;4.95;;;3.40;;
60416;SDS011;46263;44.726;10.396;2022-10-16T17:05:58;3.50;;;3.20;;